• Join FlightAware (Why Join?)
  • Login
  • US Flag 
06:50AM EDT


 

Airport Tracker/Info


-or-


 

Live Flight TrackerFlight Track Log ✈ SWA558 ✈ 25-Apr-2013 ✈ KRSW - KMDW

Flight Track Log - Related Links

Times and Time Zones

All times are in EDT time to prevent confusion due to time zone crossing. See the SWA558 flight status page for this flight to view local times or setup timezone preferences in your user account.

Time Position Orientation Groundspeed Altitude Reporting Facility
EDT Latitude Longitude Course Direction KTS MPH feet Rate Location/Type
12:35PM 26.6800 -81.7222 318° Northwest 253 291 5,500  Level Miami Center
12:36PM 26.7550 -81.7278 356° North 253 291 8,400 2,640 Climbing Miami Center
12:37PM 26.8364 -81.7333 357° North 268 308 10,800 2,100 Climbing Miami Center
12:38PM 26.9322 -81.7397 357° North 302 348 12,700 2,400 Climbing Miami Center
12:39PM 27.1329 -81.7831 336° Northwest  Level FlightAware Approximate
12:39PM 27.0361 -81.7489 356° North 342 394 15,600  Level Miami Center
12:40PM 27.2320 -81.8091 346° North  Level FlightAware Approximate
12:40PM 27.1417 -81.7811 345° North 370 426 18,200  Level Miami Center
12:41PM 27.3275 -81.8441 318° Northwest  Level FlightAware Approximate
12:41PM 27.2592 -81.8214 343° North 392 451 21,400  Level Miami Center
12:42PM 27.3686 -81.8586 343° North 406 467 23,500 2,040 Climbing Miami Center
12:43PM 27.4797 -81.8986 342° North 411 473 25,500 1,800 Climbing Miami Center
12:46PM 27.7483 -81.9969 342° North 442 509 29,800 1,860 Climbing Jacksonville Center
12:47PM 27.8842 -82.0122 354° North 449 517 32,000 1,080 Climbing Jacksonville Center
12:48PM 28.0008 -82.0253 354° North 438 504 32,000  Level Jacksonville Center
12:49PM 28.1014 -82.0856 332° Northwest 407 468 32,000  Level Jacksonville Center
12:50PM 28.2019 -82.1506 330° Northwest 407 468 32,100 1,200 Climbing Jacksonville Center
12:51PM 28.3025 -82.2136 331° Northwest 407 468 34,400 2,340 Climbing Jacksonville Center
12:52PM 28.3967 -82.2672 333° Northwest 396 456 36,800 1,260 Climbing Jacksonville Center
12:53PM 28.4992 -82.3019 343° North 385 443 37,000 60 Climbing Jacksonville Center
12:54PM 28.6036 -82.3464 340° North 385 443 37,000  Level Jacksonville Center
12:55PM 28.6936 -82.3789 342° North 391 450 37,000  Level Jacksonville Center
12:56PM 28.7981 -82.4211 340° North 386 444 37,000  Level Jacksonville Center
12:57PM 28.9025 -82.4633 341° North 386 444 37,000  Level Jacksonville Center
12:58PM 29.0050 -82.5056 340° North 391 450 37,000 480 Level Jacksonville Center
12:59PM 29.0867 -82.5742 324° Northwest 379 436 38,000 480 Climbing Jacksonville Center
01:00PM 29.1806 -82.6261 334° Northwest 369 425 38,000  Level Jacksonville Center
01:01PM 29.2850 -82.6664 341° North 375 432 38,000  Level Jacksonville Center
01:02PM 29.3875 -82.7042 342° North 387 445 38,000  Level Jacksonville Center
01:03PM 29.5022 -82.7567 338° Northwest 392 451 38,000  Level Jacksonville Center
01:04PM 29.6089 -82.7947 343° North 386 444 38,000  Level Jacksonville Center
01:05PM 29.7111 -82.8353 341° North 391 450 38,000  Level Jacksonville Center
01:06PM 29.8133 -82.8758 341° North 384 442 38,000  Level Jacksonville Center
01:07PM 29.9136 -82.9142 342° North 384 442 38,000  Level Jacksonville Center
01:08PM 30.0139 -82.9550 341° North 384 442 38,000  Level Jacksonville Center
01:09PM 30.1161 -82.9911 343° North 384 442 38,000  Level Jacksonville Center
01:10PM 30.2183 -83.0319 341° North 384 442 38,000  Level Jacksonville Center
01:11PM 30.3206 -83.0706 342° North 384 442 38,000  Level Jacksonville Center
01:12PM 30.4250 -83.1142 340° North 384 442 38,000  Level Jacksonville Center
01:13PM 30.5253 -83.1531 342° North 384 442 38,000  Level Jacksonville Center
01:14PM 30.6275 -83.1944 341° North 384 442 38,000  Level Jacksonville Center
01:15PM 30.7336 -83.2358 341° North 384 442 38,000  Level Jacksonville Center
01:16PM 30.8339 -83.2772 340° North 384 442 38,000  Level Jacksonville Center
01:17PM 30.9361 -83.3189 341° North 384 442 38,000  Level Jacksonville Center
01:18PM 31.0425 -83.3606 341° North 384 442 38,000  Level Jacksonville Center
01:19PM 31.1467 -83.4022 341° North 384 442 38,000  Level Jacksonville Center
01:20PM 31.3364 -83.4822 340° North 401 461 38,000  Level Atlanta Center
01:21PM 31.4408 -83.5228 342° North 401 461 38,000  Level Atlanta Center
01:22PM 31.5453 -83.5636 342° North 395 455 38,000  Level Atlanta Center
01:23PM 31.6497 -83.6069 341° North 395 455 38,000  Level Atlanta Center
01:24PM 31.7417 -83.6408 343° North 403 464 38,000  Level Atlanta Center
01:25PM 31.8589 -83.6917 340° North 410 472 38,000  Level Atlanta Center
01:26PM 31.9675 -83.7378 340° North 410 472 38,000  Level Atlanta Center
01:27PM 32.0739 -83.7814 341° North 410 472 38,000  Level Atlanta Center
01:28PM 32.1783 -83.8253 340° North 410 472 38,000  Level Atlanta Center
01:29PM 32.2892 -83.8717 341° North 410 472 38,000  Level Atlanta Center
01:30PM 32.3956 -83.9158 341° North 410 472 38,000  Level Atlanta Center
01:31PM 32.5022 -83.9625 340° North 410 472 38,000  Level Atlanta Center
01:32PM 32.6086 -84.0044 342° North 410 472 38,000  Level Atlanta Center
01:33PM 32.7131 -84.0511 339° North 405 466 38,000  Level Atlanta Center
01:34PM 32.8217 -84.0931 342° North 405 466 38,000  Level Atlanta Center
01:35PM 32.9258 -84.1403 339° North 405 466 38,000  Level Atlanta Center
01:36PM 33.0303 -84.1825 341° North 405 466 38,000  Level Atlanta Center
01:37PM 33.1469 -84.2297 341° North 405 466 38,000  Level Atlanta Center
01:38PM 33.2389 -84.2697 340° North 400 460 38,000  Level Atlanta Center
01:39PM 33.3411 -84.3147 340° North 395 455 38,000  Level Atlanta Center
01:40PM 33.4411 -84.3575 340° North 390 449 38,000  Level Atlanta Center
01:41PM 33.5411 -84.4003 340° North 390 449 38,000  Level Atlanta Center
01:42PM 33.6453 -84.4431 341° North 390 449 38,000  Level Atlanta Center
01:43PM 33.7683 -84.4711 349° North 398 458 38,000  Level Atlanta Center
01:44PM 33.8769 -84.4992 348° North 398 458 38,000  Level Atlanta Center
01:45PM 33.9894 -84.5247 349° North 403 464 38,000  Level Atlanta Center
01:46PM 34.1022 -84.5531 348° North 408 470 38,000  Level Atlanta Center
01:47PM 34.2064 -84.5764 350° North 423 487 38,000  Level Atlanta Center
01:48PM 34.3189 -84.6047 348° North 413 475 38,000  Level Atlanta Center
01:49PM 34.4294 -84.6306 349° North 408 470 38,000  Level Atlanta Center
01:50PM 34.5400 -84.6567 349° North 408 470 38,000  Level Atlanta Center
01:51PM 34.6483 -84.6853 348° North 403 464 38,000  Level Atlanta Center
01:52PM 34.7525 -84.7111 348° North 395 455 38,000  Level Atlanta Center
01:53PM 34.8608 -84.7400 348° North 390 449 38,000  Level Atlanta Center
01:54PM 34.9672 -84.7661 349° North 390 449 38,000  Level Atlanta Center
01:55PM 35.0733 -84.7925 348° North 390 449 38,000  Level Atlanta Center
01:56PM 35.1797 -84.8189 349° North 390 449 38,000  Level Atlanta Center
01:57PM 35.2881 -84.8453 349° North 390 449 38,000  Level Atlanta Center
01:58PM 35.3942 -84.8719 348° North 390 449 38,000  Level Atlanta Center
01:59PM 35.5025 -84.8983 349° North 395 455 38,000  Level Atlanta Center
02:00PM 35.6108 -84.9278 348° North 395 455 38,000  Level Atlanta Center
02:01PM 35.7192 -84.9569 348° North 395 455 38,000  Level Atlanta Center
02:02PM 35.8481 -84.9867 349° North 400 460 38,000  Level Atlanta Center
02:04PM 36.0200 -85.0297 349° North 405 466 38,000  Level Indianapolis Center
02:05PM 36.1314 -85.0581 348° North 405 466 38,000  Level Indianapolis Center
02:06PM 36.2639 -85.0922 348° North 405 466 38,000  Level Indianapolis Center
02:07PM 36.3747 -85.1214 348° North 404 465 38,000  Level Indianapolis Center
02:08PM 36.4842 -85.1492 348° North 402 463 38,000  Level Indianapolis Center
02:09PM 36.5939 -85.1772 348° North 403 464 38,000  Level Indianapolis Center
02:10PM 36.7025 -85.2053 348° North 398 458 38,000  Level Indianapolis Center
02:11PM 36.8125 -85.2342 348° North 403 464 38,000  Level Indianapolis Center
02:12PM 36.9464 -85.2633 350° North 405 466 38,000  Level Indianapolis Center
02:13PM 37.0539 -85.2850 351° North 405 466 38,000  Level Indianapolis Center
02:14PM 37.1683 -85.3094 350° North 411 473 38,000  Level Indianapolis Center
02:15PM 37.2822 -85.3347 350° North 414 476 38,000  Level Indianapolis Center
02:16PM 37.3967 -85.3597 350° North 414 476 38,000  Level Indianapolis Center
02:18PM 37.5292 -85.3867 351° North 413 475 38,000  Level Indianapolis Center
02:19PM 37.6422 -85.4119 350° North 410 472 38,000  Level Indianapolis Center
02:20PM 37.7542 -85.4369 350° North 408 470 38,000  Level Indianapolis Center
02:21PM 37.8581 -85.4581 351° North 418 481 38,000  Level Indianapolis Center
02:22PM 37.9953 -85.4875 350° North 414 476 38,000  Level Indianapolis Center
02:23PM 38.1094 -85.5128 350° North 414 476 38,000  Level Indianapolis Center
02:24PM 38.2233 -85.5369 351° North 414 476 38,000  Level Indianapolis Center
02:25PM 38.3375 -85.5617 350° North 413 475 38,000 -1,140 Level Indianapolis Center
02:26PM 38.4508 -85.5875 350° North 412 474 35,700 -1,500 Descending Indianapolis Center
02:27PM 38.5628 -85.6119 350° North 409 471 35,000 -360 Descending Indianapolis Center
02:28PM 38.6794 -85.6378 350° North 411 473 35,000 -120 Level Indianapolis Center
02:29PM 38.8131 -85.6656 351° North 413 475 34,800 -660 Descending Indianapolis Center
02:30PM 38.9231 -85.6914 350° North 401 461 33,700 -1,140 Descending Indianapolis Center
02:31PM 39.0344 -85.7164 350° North 402 463 32,500 -1,200 Descending Indianapolis Center
02:32PM 39.1458 -85.7400 351° North 404 465 31,300 -1,200 Descending Indianapolis Center
02:33PM 39.2558 -85.7650 350° North 401 461 30,100 -660 Descending Indianapolis Center
02:34PM 39.3686 -85.7914 350° North 409 471 30,000 -780 Descending Indianapolis Center
02:35PM 39.4922 -85.8189 350° North 386 444 28,500 -1,260 Descending Indianapolis Center
02:36PM 39.5842 -85.8406 350° North 343 395 27,400 -900 Descending Indianapolis Center
02:37PM 39.6778 -85.8619 350° North 342 394 26,700 -780 Descending Indianapolis Center
02:38PM 39.7797 -85.8842 350° North 366 421 25,800 -960 Descending Indianapolis Center
02:39PM 39.8803 -85.9078 350° North 368 423 24,800 -900 Descending Indianapolis Center
02:40PM 39.9975 -85.9456 346° North 375 432 24,000 -420 Descending Indianapolis Center
02:41PM 40.0950 -85.9911 340° North 373 429 24,000  Level Indianapolis Center
02:42PM 40.1772 -86.0281 341° North 374 430 24,000 -540 Level Chicago Center
02:43PM 40.2786 -86.0733 341° North 382 440 23,100 -540 Descending Chicago Center
02:44PM 40.3808 -86.1208 341° North 387 445 23,000 -60 Descending Chicago Center
02:45PM 40.4814 -86.1672 341° North 384 442 23,000  Level Chicago Center
02:46PM 40.5831 -86.2147 340° North 385 443 23,000 -1,020 Level Chicago Center
02:47PM 40.7025 -86.2697 341° North 389 448 21,000 -2,220 Descending Chicago Center
02:48PM 40.7856 -86.3097 340° North 385 443 18,500 -2,880 Descending Chicago Center
02:49PM 40.9061 -86.3650 341° North 380 437 15,100 -2,880 Descending Chicago Center
02:50PM 40.9983 -86.4086 340° North 356 410 12,600 -2,040 Descending Chicago Center
02:51PM 41.0739 -86.4733 327° Northwest 332 382 11,000 -1,260 Descending Chicago Center
02:52PM 41.1317 -86.5608 311° West 314 361 10,000 -540 Descending Chicago Center
02:53PM 41.1872 -86.6464 311° West 307 353 10,000  Level Chicago Center
02:54PM 41.2483 -86.7386 311° West 310 357 10,000  Level Chicago Center
02:56PM 41.3017 -86.8247 310° West 306 352 10,000 -300 Level Chicago Center
02:57PM 41.3608 -86.9167 311° West 271 312 9,400 -780 Descending Chicago Center
02:58PM 41.4069 -86.9886 311° West 260 299 8,400 -960 Descending Chicago Center
02:59PM 41.4542 -87.0622 311° West 262 302 7,400 -720 Descending Chicago Center
03:00PM 41.4892 -87.1444 300° West 259 298 7,000 -480 Descending Chicago Center
03:00PM 41.5167 -87.2000 303° West 262 302 6,700 -1,140 Descending Chicago TRACON
03:01PM 41.5500 -87.3000 294° West 265 305 5,200 -1,200 Descending Chicago TRACON
03:02PM 41.5833 -87.3833 298° West 254 292 4,300 -840 Descending Chicago TRACON
03:03PM 41.5981 -87.4144 302° West 260 299 4,000 -240 Descending Chicago Center
03:04PM 41.6294 -87.4956 297° West 255 293 4,000  Level Chicago Center
03:05PM 41.6578 -87.5681 298° West 241 277 4,000 -420 Level Chicago Center
03:06PM 41.6922 -87.6231 310° West 216 249 3,200 -1,020 Descending Chicago Center
03:06PM 41.7167 -87.6500 321° Northwest 192 221 2,700 -1,080 Descending Chicago TRACON
03:07PM 41.7333 -87.6833 304° West 143 165 1,800 -840 Descending Chicago TRACON
03:08PM 41.7667 -87.7167 323° Northwest 131 151 1,100 -720 Descending Chicago TRACON